Irmo, South Carolina
Current Conditions -  °F | °C
As of 2:56 PM on Monday 22 Dec 2014 (Local Time) from KCAE Reporting Station
Light Rain Light Rain  
Wind Chill: 43°   Ceiling: 500
Heat Index: 45°   Visibility: 2mi
Dew Point: 43°   Wind: 5mph
Humidity: 93%   Direction: 20°NNE
Pressure: 30.01"   Gusts: NA
Location:  34.09°N, 81.18°W
Report Text: KCAE 221956Z 02004KT 2SM -RA BR OVC005 07/06 A3001 RMK AO2 RAB11E30B50 SLP162 P0000 T00720061
Loading
Personal Weather Stations






























Interactive Weather Map New forecast layout! Learn more

10-Day Weather Forecast

Advertisements
Track Severe Weather on mobile